Saipan, MP (96950)

7:23 AM ChST on March 02, 2017 (GMT +1000)
Red Cross-Airport | | Change Station

Elev 215 ft 15.13 °N, 145.72 °E | Updated 7 minutes ago

Rain
Rain
75.6 °F
Feels Like 75 °F
N
11.0
Wind Variable Wind from ESE
Gusts 13.0 mph

Today
High -- | Low -- °F
--% Chance of Precip.
Yesterday
High -- | Low -- °F
Precip. -- in
Pressure 29.92 in
Visibility 10.0 miles
Clouds Scattered Clouds 2100 ft
Mostly Cloudy 5000 ft
Overcast 12000 ft
Heat Index 75 °F
Dew Point 73 °F
Humidity 91%
Rainfall 0.16 in
Snow Depth Not available.
6:33 AM 6:25 PM
Waxing Crescent, 13% visible
METAR PGSN 012054Z COR 07012KT 10SM SCT021CB BKN050 OVC120 24/23 A2986 RMK AO2 SLP132 VCSH E-SW CB SE MOV W 60013 T02440228 53006
Pressure 29.92 in
Visibility 10.0 miles
Clouds Scattered Clouds 2100 ft
Mostly Cloudy 5000 ft
Overcast 12000 ft
Heat Index 75 °F
Dew Point 73 °F
Humidity 91%
Rainfall 0.16 in
Snow Depth Not available.
6:33 AM 6:25 PM
Waxing Crescent, 13% visible
METAR PGSN 012054Z COR 07012KT 10SM SCT021CB BKN050 OVC120 24/23 A2986 RMK AO2 SLP132 VCSH E-SW CB SE MOV W 60013 T02440228 53006

Get Your Daily Forecast Email!

Thanks for signing up!

Be on the lookout for a verification email in your inbox.

You'll start receiving the daily forecast at 8 AM.

×

10-Day Weather Forecast

Almanac

Astronomy

Mar. 02, 2017 Rise Set
Actual Time
Civil Twilight
Nautical Twilight
Astronomical Twilight
Moon
Length of Visible Light
Length of Day
Tomorrow will be .
, % of the Moon is Illuminated

Today's Extremes

State Highs State Lows

Community

WunderPhotos

Upload Photos

1,962,540 photos uploaded!

WunderBlog® & News

Nearby

Air Quality

  Air Quality AQ Index Pollutant
Not available.

Snow Depth

Station Depth Elevation

Earthquake Activity

City Distance Mag. Time & Date
Minimum magnitude displayed is 2.5.

Coastal Water Temperatures

Place Temperature

Stations

Nearby Weather Stations

Station Location Temp. Windchill Dew Point Humidity Wind Precip. Elev Updated Type
                   

Watches & Warnings

There are currently no watches in effect.